Time;durP1;ratioP1;P1;durP2;ratioP2;P2;SDS_P1;SDS_P2;PMS_P1;PMS_P2;Temp;Humidity;BMP_temperature;BMP_pressure;BME280_temperature;BME280_humidity;BME280_pressure;Samples;Min_cycle;Max_cycle;Signal;HPM_P1;HPM_P2
2023/10/30 00:02:42;;;;;;;6.45;5.90;;;;;;;;;;6154031;23;20065;-84
2023/10/30 00:05:08;;;;;;;6.30;5.63;;;;;;;;;;6139234;23;20022;-82
2023/10/30 00:07:39;;;;;;;7.30;4.85;;;;;;;;;;6058857;23;20026;31
2023/10/30 00:10:06;;;;;;;5.85;5.45;;;;;;;;;;6074437;23;20022;-84
2023/10/30 00:12:32;;;;;;;6.07;5.57;;;;;;;;;;6150478;23;19994;-84
2023/10/30 00:15:02;;;;;;;6.22;5.72;;;;;;;;;;6127098;23;20025;-84
2023/10/30 00:17:31;;;;;;;6.22;5.72;;;;;;;;;;6127969;23;20017;-84
2023/10/30 00:19:59;;;;;;;7.07;6.38;;;;;;;;;;6152150;23;20013;-87
2023/10/30 00:22:25;;;;;;;5.32;4.82;;;;;;;;;;6149037;23;20018;-84
2023/10/30 00:24:51;;;;;;;6.72;6.13;;;;;;;;;;6154915;23;20013;-84
2023/10/30 00:27:17;;;;;;;6.00;5.47;;;;;;;;;;6133505;23;20000;-84
2023/10/30 00:32:42;;;;;;;6.10;5.20;;;;;;;;;;6095005;23;20252;-84
2023/10/30 00:35:08;;;;;;;7.28;6.57;;;;;;;;;;6120348;23;20017;-84
2023/10/30 00:37:34;;;;;;;6.57;6.00;;;;;;;;;;6100303;23;19999;-85
2023/10/30 00:40:00;;;;;;;4.47;4.15;;;;;;;;;;6100161;23;20022;-84
2023/10/30 00:42:28;;;;;;;7.78;5.93;;;;;;;;;;6116496;23;20006;-84
2023/10/30 00:44:55;;;;;;;6.75;6.15;;;;;;;;;;6158531;23;20055;-84
2023/10/30 00:50:10;;;;;;;6.55;5.93;;;;;;;;;;6154868;23;20030;-86
2023/10/30 00:55:40;;;;;;;7.07;6.22;;;;;;;;;;6102085;23;20025;-84
2023/10/30 00:58:07;;;;;;;7.75;6.40;;;;;;;;;;6079569;23;20017;-83
2023/10/30 01:00:35;;;;;;;6.40;5.90;;;;;;;;;;6159382;23;20009;-82
2023/10/30 01:03:01;;;;;;;7.05;5.63;;;;;;;;;;6158523;23;20022;-82
2023/10/30 01:05:27;;;;;;;2.40;2.30;;;;;;;;;;6184155;23;19993;-84
2023/10/30 01:10:58;;;;;;;6.93;6.15;;;;;;;;;;6093324;23;20014;-84
2023/10/30 01:13:25;;;;;;;5.30;4.90;;;;;;;;;;6089898;23;20026;-84
2023/10/30 01:15:51;;;;;;;6.70;6.07;;;;;;;;;;6087600;23;19999;-84
2023/10/30 01:18:17;;;;;;;7.65;6.05;;;;;;;;;;6064451;23;20018;-83
2023/10/30 01:20:43;;;;;;;7.47;6.78;;;;;;;;;;6066499;23;20011;-83
2023/10/30 01:23:09;;;;;;;7.18;6.35;;;;;;;;;;6092167;23;20082;-82
2023/10/30 01:25:36;;;;;;;6.63;6.03;;;;;;;;;;6090346;23;20010;-82
2023/10/30 01:28:01;;;;;;;7.40;6.70;;;;;;;;;;6093986;23;20093;-81
2023/10/30 01:30:27;;;;;;;7.88;6.50;;;;;;;;;;6041294;23;20011;-83
2023/10/30 01:32:54;;;;;;;5.13;4.68;;;;;;;;;;6070101;23;20015;-83
2023/10/30 01:35:19;;;;;;;5.20;4.80;;;;;;;;;;6065869;23;20044;-82
2023/10/30 01:37:45;;;;;;;6.78;6.18;;;;;;;;;;6063513;23;20015;-84
2023/10/30 01:40:12;;;;;;;6.70;6.10;;;;;;;;;;6063669;23;20011;-83
2023/10/30 01:42:37;;;;;;;5.68;5.18;;;;;;;;;;6063565;23;20451;-84
2023/10/30 01:45:04;;;;;;;7.63;6.50;;;;;;;;;;6015539;23;20063;-83
2023/10/30 01:47:31;;;;;;;8.55;6.65;;;;;;;;;;6039359;23;20349;-84
2023/10/30 01:50:00;;;;;;;7.82;7.07;;;;;;;;;;6118663;23;20805;-83
2023/10/30 01:55:32;;;;;;;7.72;7.07;;;;;;;;;;6003860;23;20042;31
2023/10/30 01:57:59;;;;;;;7.22;6.53;;;;;;;;;;5986402;23;20030;-86
2023/10/30 02:03:20;;;;;;;12.55;8.23;;;;;;;;;;6079848;23;20006;-86
2023/10/30 02:05:47;;;;;;;7.03;6.32;;;;;;;;;;6013292;23;20038;-86
2023/10/30 02:08:13;;;;;;;7.53;6.93;;;;;;;;;;6094968;23;20002;-86
2023/10/30 02:10:39;;;;;;;6.38;5.88;;;;;;;;;;6020144;23;20026;-80
2023/10/30 02:18:43;;;;;;;5.55;5.07;;;;;;;;;;6107083;23;20014;-85
2023/10/30 02:21:11;;;;;;;6.50;5.90;;;;;;;;;;6098306;23;20014;-85
2023/10/30 02:23:38;;;;;;;6.90;6.30;;;;;;;;;;6097019;23;20038;-83
2023/10/30 02:26:04;;;;;;;5.38;4.97;;;;;;;;;;6121103;23;20046;-82
2023/10/30 02:28:30;;;;;;;6.38;5.88;;;;;;;;;;6071902;23;20096;-83
2023/10/30 02:30:56;;;;;;;5.60;5.13;;;;;;;;;;6119164;23;20011;-82
2023/10/30 02:33:22;;;;;;;4.45;4.10;;;;;;;;;;6116717;23;20046;-81
2023/10/30 02:35:49;;;;;;;6.72;6.13;;;;;;;;;;6085934;23;20010;-82
2023/10/30 02:38:15;;;;;;;5.55;5.03;;;;;;;;;;6058485;23;20032;-83
2023/10/30 02:40:41;;;;;;;6.10;5.60;;;;;;;;;;6108585;23;20002;-82
2023/10/30 02:43:07;;;;;;;6.80;6.07;;;;;;;;;;6120599;23;20419;-83
2023/10/30 02:45:33;;;;;;;6.22;5.63;;;;;;;;;;6120446;23;20010;-81
2023/10/30 02:47:59;;;;;;;7.18;6.47;;;;;;;;;;6118419;23;20029;-83
2023/10/30 02:50:25;;;;;;;5.68;5.18;;;;;;;;;;6093585;23;20034;-83
2023/10/30 02:52:51;;;;;;;6.68;6.18;;;;;;;;;;6118147;23;20010;-83
2023/10/30 02:55:17;;;;;;;5.20;4.70;;;;;;;;;;6119692;23;20006;-82
2023/10/30 02:57:45;;;;;;;5.68;5.15;;;;;;;;;;6092649;23;20014;-82
2023/10/30 03:00:12;;;;;;;5.18;4.78;;;;;;;;;;6088981;23;20368;-83
2023/10/30 03:02:38;;;;;;;5.35;4.80;;;;;;;;;;6109029;23;20098;-83
2023/10/30 03:05:04;;;;;;;5.70;5.03;;;;;;;;;;6087295;23;20042;-82
2023/10/30 03:07:30;;;;;;;6.30;5.70;;;;;;;;;;6115750;23;20006;-82
2023/10/30 03:09:56;;;;;;;6.25;5.65;;;;;;;;;;6118495;23;20009;-84
2023/10/30 03:12:23;;;;;;;5.70;5.25;;;;;;;;;;6070405;23;20010;-81
2023/10/30 03:14:49;;;;;;;5.85;5.35;;;;;;;;;;6071227;23;20032;-83
2023/10/30 03:22:47;;;;;;;5.43;4.93;;;;;;;;;;6080653;23;20014;-84
2023/10/30 03:25:14;;;;;;;5.80;5.25;;;;;;;;;;6070241;23;20029;-86
2023/10/30 03:27:40;;;;;;;5.07;4.68;;;;;;;;;;6099950;23;20016;-83
2023/10/30 03:30:06;;;;;;;7.82;6.88;;;;;;;;;;6103996;23;20041;-84
2023/10/30 03:32:32;;;;;;;6.03;5.53;;;;;;;;;;6147864;23;20085;-83
2023/10/30 03:34:59;;;;;;;7.03;5.72;;;;;;;;;;6153120;23;20014;-84
2023/10/30 03:37:25;;;;;;;6.07;5.00;;;;;;;;;;6149516;23;20066;-83
2023/10/30 03:39:51;;;;;;;5.32;4.90;;;;;;;;;;6151651;23;20066;-84
2023/10/30 03:42:18;;;;;;;6.22;5.72;;;;;;;;;;6127581;23;20474;-83
2023/10/30 03:44:45;;;;;;;8.02;6.80;;;;;;;;;;6176932;23;20025;-84
2023/10/30 03:47:11;;;;;;;6.43;5.82;;;;;;;;;;6151578;23;20017;-84
2023/10/30 03:49:39;;;;;;;7.28;6.57;;;;;;;;;;6151424;23;20073;-86
2023/10/30 03:52:05;;;;;;;5.50;5.00;;;;;;;;;;6114076;23;20033;-83
2023/10/30 03:54:31;;;;;;;6.75;6.05;;;;;;;;;;6130411;23;20001;-84
2023/10/30 03:56:56;;;;;;;6.63;5.85;;;;;;;;;;6118503;23;20048;-86
2023/10/30 03:59:23;;;;;;;7.35;6.07;;;;;;;;;;6124257;23;20036;-83
2023/10/30 04:01:49;;;;;;;6.25;5.75;;;;;;;;;;6150302;23;20022;-84
2023/10/30 04:04:15;;;;;;;6.30;5.70;;;;;;;;;;6149368;23;20022;-82
2023/10/30 04:06:42;;;;;;;7.75;6.72;;;;;;;;;;6122666;23;20098;-83
2023/10/30 04:09:08;;;;;;;8.75;6.60;;;;;;;;;;6144518;23;20018;-83
2023/10/30 04:11:34;;;;;;;6.80;6.10;;;;;;;;;;6148241;23;20021;-84
2023/10/30 04:14:06;;;;;;;5.35;4.88;;;;;;;;;;6152135;23;20014;-84
2023/10/30 04:16:33;;;;;;;5.50;5.00;;;;;;;;;;6152379;23;20033;-84
2023/10/30 04:19:06;;;;;;;6.68;4.72;;;;;;;;;;6109201;23;21096;-78
2023/10/30 04:21:35;;;;;;;6.53;5.97;;;;;;;;;;6112557;23;20026;-86
2023/10/30 04:26:50;;;;;;;5.70;5.20;;;;;;;;;;6200475;23;20033;-85
2023/10/30 04:29:15;;;;;;;6.60;5.03;;;;;;;;;;6162216;23;20013;-84
2023/10/30 04:31:41;;;;;;;5.25;4.80;;;;;;;;;;6112775;23;20026;-83
2023/10/30 06:53:02;;;;;;;5.45;5.00;;;;;;;;;;6125122;23;20026;-77
2023/10/30 06:55:28;;;;;;;4.38;4.07;;;;;;;;;;6123493;23;20041;-76
2023/10/30 06:57:54;;;;;;;5.05;4.53;;;;;;;;;;6122827;23;20017;-75
2023/10/30 07:00:20;;;;;;;3.63;3.42;;;;;;;;;;6096303;23;20018;-74
2023/10/30 07:02:46;;;;;;;5.43;4.95;;;;;;;;;;6121961;23;20046;-73
2023/10/30 07:05:12;;;;;;;5.15;4.75;;;;;;;;;;6097342;23;20414;-75
2023/10/30 07:07:38;;;;;;;4.68;4.28;;;;;;;;;;6122858;23;20459;-75
2023/10/30 07:10:04;;;;;;;5.60;5.10;;;;;;;;;;6122267;23;20340;-75
2023/10/30 07:12:30;;;;;;;4.70;4.20;;;;;;;;;;6122562;23;20073;-73
2023/10/30 07:14:56;;;;;;;5.75;5.30;;;;;;;;;;6122714;23;20018;-75
2023/10/30 07:17:22;;;;;;;4.55;4.05;;;;;;;;;;6122818;23;20006;-74
2023/10/30 07:19:48;;;;;;;5.25;4.85;;;;;;;;;;6122536;23;20333;-75
2023/10/30 07:22:14;;;;;;;5.70;5.30;;;;;;;;;;6123749;23;20033;-74
2023/10/30 07:24:40;;;;;;;5.82;5.43;;;;;;;;;;6122392;23;20056;-74
2023/10/30 07:27:06;;;;;;;6.70;6.20;;;;;;;;;;6122006;23;20080;-75
2023/10/30 07:29:32;;;;;;;5.80;5.30;;;;;;;;;;6122063;23;20454;-75
2023/10/30 07:31:58;;;;;;;5.05;4.65;;;;;;;;;;6121661;23;20408;-75
2023/10/30 07:34:24;;;;;;;4.55;4.10;;;;;;;;;;6109300;23;20010;-75
2023/10/30 07:36:51;;;;;;;7.15;5.72;;;;;;;;;;6120281;23;20021;-73
2023/10/30 07:39:17;;;;;;;4.78;4.28;;;;;;;;;;6122156;23;20010;-79
2023/10/30 07:41:43;;;;;;;4.50;4.20;;;;;;;;;;6122127;23;20018;-77
2023/10/30 07:44:09;;;;;;;5.50;5.00;;;;;;;;;;6122581;23;20022;-77
2023/10/30 07:46:35;;;;;;;7.03;5.03;;;;;;;;;;6122511;23;20080;-78
2023/10/30 07:49:06;;;;;;;6.82;6.22;;;;;;;;;;6123736;23;20159;-78
2023/10/30 07:51:32;;;;;;;5.03;4.63;;;;;;;;;;6136324;23;20108;-76
2023/10/30 07:53:58;;;;;;;4.43;4.07;;;;;;;;;;6153859;23;20630;-75
2023/10/30 07:56:25;;;;;;;4.32;3.53;;;;;;;;;;6154716;23;20401;-75
2023/10/30 07:58:51;;;;;;;4.95;4.57;;;;;;;;;;6153072;23;20022;-77
2023/10/30 08:01:20;;;;;;;5.00;4.60;;;;;;;;;;6151375;23;20426;-75
2023/10/30 08:03:46;;;;;;;4.40;4.07;;;;;;;;;;6150642;23;20025;-76
2023/10/30 08:06:15;;;;;;;3.90;3.60;;;;;;;;;;6149519;23;20021;-77
2023/10/30 08:08:41;;;;;;;5.65;5.07;;;;;;;;;;6125352;23;20018;-77
2023/10/30 08:11:07;;;;;;;4.07;3.78;;;;;;;;;;6100061;23;20484;-78
2023/10/30 08:13:33;;;;;;;4.28;3.95;;;;;;;;;;6126084;23;20386;-77
2023/10/30 08:15:59;;;;;;;4.35;3.95;;;;;;;;;;6150197;23;20099;-77
2023/10/30 08:18:25;;;;;;;7.30;5.53;;;;;;;;;;6151834;23;20014;-75
2023/10/30 08:20:51;;;;;;;4.28;3.88;;;;;;;;;;6148350;23;20017;-75
2023/10/30 08:23:17;;;;;;;7.28;4.65;;;;;;;;;;6125344;23;20028;-75
2023/10/30 08:25:43;;;;;;;3.65;3.40;;;;;;;;;;6151149;23;20013;-76
2023/10/30 08:28:09;;;;;;;6.05;5.53;;;;;;;;;;6125360;23;20458;-75
2023/10/30 08:30:36;;;;;;;6.30;5.80;;;;;;;;;;6151758;23;20014;-76
2023/10/30 08:33:03;;;;;;;6.25;5.72;;;;;;;;;;6150127;23;20396;-76
2023/10/30 08:35:30;;;;;;;3.97;3.67;;;;;;;;;;6126147;23;20339;-77
2023/10/30 08:37:57;;;;;;;7.00;6.43;;;;;;;;;;6151137;23;20400;-77
2023/10/30 08:40:26;;;;;;;5.90;5.43;;;;;;;;;;6151818;23;20016;-77
2023/10/30 08:42:52;;;;;;;7.68;5.68;;;;;;;;;;6151062;23;20467;-78
2023/10/30 08:45:18;;;;;;;4.75;3.97;;;;;;;;;;6125902;23;20036;-77
2023/10/30 08:47:45;;;;;;;4.97;4.57;;;;;;;;;;6151873;23;20010;-76
2023/10/30 08:50:11;;;;;;;4.35;3.97;;;;;;;;;;6153428;23;20023;-76
2023/10/30 08:52:37;;;;;;;5.53;5.13;;;;;;;;;;6152687;23;20021;-74
2023/10/30 08:55:04;;;;;;;4.72;4.32;;;;;;;;;;6151882;23;20372;-76
2023/10/30 08:57:31;;;;;;;4.72;4.43;;;;;;;;;;6153433;23;20024;-77
2023/10/30 08:59:57;;;;;;;6.30;5.70;;;;;;;;;;6152773;23;20005;-77
2023/10/30 09:02:23;;;;;;;5.40;4.25;;;;;;;;;;6127321;23;20462;-77
2023/10/30 09:04:49;;;;;;;5.75;5.05;;;;;;;;;;6153090;23;20033;-77
2023/10/30 09:07:16;;;;;;;6.00;5.50;;;;;;;;;;6127120;23;20013;-77
2023/10/30 09:09:42;;;;;;;5.65;4.35;;;;;;;;;;6127368;23;20021;-76
2023/10/30 09:12:08;;;;;;;5.65;4.78;;;;;;;;;;6153526;23;20013;-77
2023/10/30 09:14:34;;;;;;;6.07;5.45;;;;;;;;;;6153574;23;20013;-78
2023/10/30 09:17:00;;;;;;;5.82;5.32;;;;;;;;;;6154287;23;20489;-79
2023/10/30 09:19:26;;;;;;;11.60;4.50;;;;;;;;;;6153992;23;20017;-77
2023/10/30 09:21:52;;;;;;;5.13;4.75;;;;;;;;;;6152553;23;20013;-78
2023/10/30 09:24:18;;;;;;;4.65;4.35;;;;;;;;;;6153227;23;20136;-78
2023/10/30 09:26:44;;;;;;;5.65;5.25;;;;;;;;;;6102900;23;20021;-78
2023/10/30 09:29:10;;;;;;;5.47;5.00;;;;;;;;;;6127769;23;20379;-79
2023/10/30 09:31:36;;;;;;;6.82;4.40;;;;;;;;;;6130618;23;20016;-79
2023/10/30 09:34:03;;;;;;;4.10;3.85;;;;;;;;;;6159507;23;20017;-80
2023/10/30 09:36:29;;;;;;;4.40;4.10;;;;;;;;;;6156688;23;20053;-82
2023/10/30 09:38:56;;;;;;;5.40;4.57;;;;;;;;;;6129321;23;20024;-81
2023/10/30 09:41:22;;;;;;;5.35;4.95;;;;;;;;;;6162495;23;20056;-80
2023/10/30 09:43:51;;;;;;;5.47;5.07;;;;;;;;;;6139543;23;20079;-83
2023/10/30 09:46:17;;;;;;;4.97;4.57;;;;;;;;;;6138114;23;20100;-84
2023/10/30 09:48:46;;;;;;;4.72;4.43;;;;;;;;;;6173928;23;20013;-82
2023/10/30 09:51:12;;;;;;;5.78;5.28;;;;;;;;;;6171881;23;20025;-81
2023/10/30 09:53:39;;;;;;;6.53;5.88;;;;;;;;;;6148618;23;20006;-81
2023/10/30 09:56:06;;;;;;;8.02;4.53;;;;;;;;;;6118429;23;20013;-81
2023/10/30 09:58:32;;;;;;;3.90;3.45;;;;;;;;;;6175488;23;20013;-81
2023/10/30 10:00:59;;;;;;;5.40;4.90;;;;;;;;;;6128496;23;20017;-82
2023/10/30 10:03:25;;;;;;;8.82;6.82;;;;;;;;;;6178480;23;20497;-80
2023/10/30 10:05:57;;;;;;;6.10;5.53;;;;;;;;;;6177789;23;20014;-79
2023/10/30 10:08:24;;;;;;;7.13;6.53;;;;;;;;;;6177113;23;20000;-81
2023/10/30 10:10:56;;;;;;;7.75;7.15;;;;;;;;;;6130642;23;20012;-78
2023/10/30 10:13:23;;;;;;;7.97;6.43;;;;;;;;;;6160789;23;20401;-78
2023/10/30 10:15:49;;;;;;;6.22;5.43;;;;;;;;;;6159467;23;20470;-76
2023/10/30 10:18:25;;;;;;;7.15;5.72;;;;;;;;;;6130802;23;20037;-76
2023/10/30 10:21:02;;;;;;;6.30;4.57;;;;;;;;;;6152502;23;20013;-78
2023/10/30 10:23:32;;;;;;;4.18;3.90;;;;;;;;;;6127565;23;20051;-77
2023/10/30 10:26:00;;;;;;;6.22;5.63;;;;;;;;;;6103926;23;20081;-78
2023/10/30 10:28:26;;;;;;;6.45;5.95;;;;;;;;;;6103727;23;20017;-79
2023/10/30 10:30:53;;;;;;;10.02;6.93;;;;;;;;;;6154256;23;20009;-78
2023/10/30 10:33:20;;;;;;;8.60;7.70;;;;;;;;;;6152747;23;20014;-80
2023/10/30 10:35:46;;;;;;;7.80;7.03;;;;;;;;;;6127200;23;20020;-79
2023/10/30 10:38:16;;;;;;;7.85;7.13;;;;;;;;;;6154045;23;20021;-80
2023/10/30 10:40:42;;;;;;;14.75;12.75;;;;;;;;;;6127370;23;20413;-76
2023/10/30 10:43:08;;;;;;;13.05;9.95;;;;;;;;;;6126288;23;20025;-79
2023/10/30 10:45:35;;;;;;;10.20;8.18;;;;;;;;;;6126749;23;20469;-79
2023/10/30 10:48:01;;;;;;;10.38;7.97;;;;;;;;;;6153339;23;20041;-79
2023/10/30 10:50:27;;;;;;;11.15;8.85;;;;;;;;;;6156119;23;20017;-78
2023/10/30 10:52:53;;;;;;;9.70;8.07;;;;;;;;;;6159406;23;20021;-77
2023/10/30 10:55:23;;;;;;;8.00;7.20;;;;;;;;;;6158560;23;20019;-78
2023/10/30 10:57:51;;;;;;;12.35;8.13;;;;;;;;;;6153844;23;20033;-77
2023/10/30 11:00:17;;;;;;;6.93;6.28;;;;;;;;;;6154858;23;20014;-79
2023/10/30 11:02:44;;;;;;;8.23;7.47;;;;;;;;;;6157042;23;20017;-79
2023/10/30 11:05:10;;;;;;;8.30;7.50;;;;;;;;;;6131533;23;20021;-81
2023/10/30 11:07:47;;;;;;;10.10;9.07;;;;;;;;;;6169047;23;20024;-82
2023/10/30 11:10:17;;;;;;;6.85;6.18;;;;;;;;;;6128721;23;20065;-82
2023/10/30 11:13:10;;;;;;;8.45;7.63;;;;;;;;;;6180218;23;19990;-80
2023/10/30 11:15:47;;;;;;;11.35;8.50;;;;;;;;;;6150812;23;20025;-81
2023/10/30 11:18:18;;;;;;;11.23;9.68;;;;;;;;;;6174084;23;20032;-81
2023/10/30 11:20:44;;;;;;;8.35;7.45;;;;;;;;;;6172004;23;20036;-79
2023/10/30 11:23:12;;;;;;;11.68;9.00;;;;;;;;;;6162430;23;20029;-82
2023/10/30 11:26:11;;;;;;;10.30;9.02;;;;;;;;;;6166832;23;20021;-83
2023/10/30 11:28:35;;;;;;;8.68;5.93;;;;;;;;;;6131426;23;20012;-78
2023/10/30 11:31:02;;;;;;;11.00;9.38;;;;;;;;;;6131662;23;20009;-78
2023/10/30 11:33:30;;;;;;;14.85;8.93;;;;;;;;;;6131723;23;20176;-79
2023/10/30 11:36:14;;;;;;;7.82;7.13;;;;;;;;;;6130603;23;20005;-79
2023/10/30 11:38:59;;;;;;;11.05;9.25;;;;;;;;;;6125505;23;20048;-78
2023/10/30 11:41:25;;;;;;;10.32;9.23;;;;;;;;;;6152653;23;20112;-79
2023/10/30 11:43:52;;;;;;;10.20;9.18;;;;;;;;;;6125948;23;20108;-77
2023/10/30 11:46:18;;;;;;;14.65;9.63;;;;;;;;;;6153264;23;20042;-79
2023/10/30 11:48:45;;;;;;;9.48;7.80;;;;;;;;;;6104844;23;20018;-81
2023/10/30 11:51:12;;;;;;;8.65;7.43;;;;;;;;;;6153744;23;20071;-78
2023/10/30 11:53:41;;;;;;;10.80;8.90;;;;;;;;;;6105766;23;19997;-82
2023/10/30 11:56:07;;;;;;;18.35;14.30;;;;;;;;;;6172459;23;20016;-81
2023/10/30 11:58:33;;;;;;;24.05;16.38;;;;;;;;;;6166577;23;20025;-82
2023/10/30 12:00:59;;;;;;;29.75;18.08;;;;;;;;;;6174610;23;19993;-83
2023/10/30 12:03:26;;;;;;;17.90;13.38;;;;;;;;;;6175484;23;20021;-82
2023/10/30 12:05:53;;;;;;;18.67;11.15;;;;;;;;;;6172648;23;20020;-83
2023/10/30 12:08:19;;;;;;;21.70;15.38;;;;;;;;;;6148642;23;20037;-83
2023/10/30 12:10:48;;;;;;;20.15;13.77;;;;;;;;;;6144142;23;20013;-81
2023/10/30 12:13:14;;;;;;;13.65;11.27;;;;;;;;;;6167764;23;20013;-81
2023/10/30 12:15:40;;;;;;;15.10;11.20;;;;;;;;;;6170558;23;20021;-82
2023/10/30 12:18:07;;;;;;;16.73;12.13;;;;;;;;;;6170230;23;20092;-82
2023/10/30 12:20:33;;;;;;;9.23;8.15;;;;;;;;;;6135911;23;20059;-82
2023/10/30 12:22:59;;;;;;;14.38;10.18;;;;;;;;;;6095662;23;20021;-82
2023/10/30 12:25:25;;;;;;;11.55;8.23;;;;;;;;;;6167894;23;20020;-82
2023/10/30 12:27:58;;;;;;;16.63;10.57;;;;;;;;;;6169006;23;20086;-82
2023/10/30 12:30:24;;;;;;;19.75;11.18;;;;;;;;;;6163081;23;20010;-80
2023/10/30 12:32:57;;;;;;;17.05;11.15;;;;;;;;;;6131663;23;20020;-78
2023/10/30 12:35:23;;;;;;;16.88;10.85;;;;;;;;;;6157447;23;20457;-81
2023/10/30 12:37:52;;;;;;;18.75;11.90;;;;;;;;;;6131721;23;20068;-80
2023/10/30 12:40:18;;;;;;;20.75;12.85;;;;;;;;;;6159306;23;20366;-79
2023/10/30 12:42:46;;;;;;;22.40;12.32;;;;;;;;;;6158715;23;20694;-79
2023/10/30 12:45:13;;;;;;;16.30;12.30;;;;;;;;;;6134488;23;20091;-80
2023/10/30 12:47:39;;;;;;;17.25;10.48;;;;;;;;;;6158406;23;20021;-80
2023/10/30 12:50:05;;;;;;;13.23;10.88;;;;;;;;;;6157628;23;20017;-80
2023/10/30 12:52:33;;;;;;;14.85;10.88;;;;;;;;;;6155880;23;20021;-79
2023/10/30 12:54:59;;;;;;;17.40;12.23;;;;;;;;;;6156044;23;20044;-79
2023/10/30 12:57:27;;;;;;;11.70;9.77;;;;;;;;;;6129100;23;20020;-78
2023/10/30 12:59:53;;;;;;;15.63;9.75;;;;;;;;;;6154638;23;20037;-79
2023/10/30 13:02:20;;;;;;;11.18;8.70;;;;;;;;;;6130048;23;20009;-78
2023/10/30 13:04:46;;;;;;;13.35;10.13;;;;;;;;;;6155208;23;20084;-79
2023/10/30 13:07:13;;;;;;;13.95;8.52;;;;;;;;;;6129758;23;20485;-77
2023/10/30 13:09:39;;;;;;;14.25;11.15;;;;;;;;;;6101749;23;20088;-81
2023/10/30 13:12:06;;;;;;;11.15;8.57;;;;;;;;;;6131299;23;20017;-81
2023/10/30 13:14:32;;;;;;;14.63;9.68;;;;;;;;;;6156720;23;20137;-80
2023/10/30 13:16:58;;;;;;;19.67;12.38;;;;;;;;;;6156912;23;20009;-81
2023/10/30 13:19:27;;;;;;;18.67;11.23;;;;;;;;;;6132544;23;20013;-81
2023/10/30 13:21:54;;;;;;;19.38;11.18;;;;;;;;;;6160705;23;20017;-79
2023/10/30 13:24:23;;;;;;;14.70;10.68;;;;;;;;;;6157802;23;20049;-79
2023/10/30 13:26:49;;;;;;;15.48;10.30;;;;;;;;;;6156349;23;20020;-77
2023/10/30 13:29:15;;;;;;;13.60;9.55;;;;;;;;;;6152752;23;20410;-78
2023/10/30 13:31:41;;;;;;;13.93;10.30;;;;;;;;;;6126035;23;20009;-77
2023/10/30 13:34:08;;;;;;;16.67;11.57;;;;;;;;;;6126178;23;20013;-78
2023/10/30 13:36:38;;;;;;;18.38;11.80;;;;;;;;;;6102744;23;20010;-77
2023/10/30 13:39:07;;;;;;;14.27;10.63;;;;;;;;;;6152111;23;20024;-77
2023/10/30 13:41:37;;;;;;;14.65;9.65;;;;;;;;;;6125802;23;20130;-76
2023/10/30 13:44:07;;;;;;;12.10;9.80;;;;;;;;;;6126488;23;20021;-77
2023/10/30 13:46:33;;;;;;;13.73;10.32;;;;;;;;;;6152001;23;20020;-76
2023/10/30 13:48:59;;;;;;;18.35;13.10;;;;;;;;;;6152388;23;20282;-75
2023/10/30 13:51:25;;;;;;;13.60;9.90;;;;;;;;;;6096983;23;20013;-76
2023/10/30 13:53:53;;;;;;;13.02;10.00;;;;;;;;;;6121797;23;20022;-78
2023/10/30 13:56:21;;;;;;;12.32;9.95;;;;;;;;;;6121862;23;20009;-79
2023/10/30 13:58:49;;;;;;;18.20;13.23;;;;;;;;;;6122683;23;20026;-75
2023/10/30 14:01:18;;;;;;;13.02;9.07;;;;;;;;;;6129839;23;20021;-80
2023/10/30 14:03:45;;;;;;;16.00;10.85;;;;;;;;;;6129476;23;20021;-80
2023/10/30 14:06:14;;;;;;;15.38;10.77;;;;;;;;;;6125634;23;20014;-80
2023/10/30 14:08:40;;;;;;;8.95;8.05;;;;;;;;;;6101822;23;20101;-80
2023/10/30 14:11:06;;;;;;;14.10;10.38;;;;;;;;;;6125713;23;20010;-79
2023/10/30 14:13:32;;;;;;;11.70;9.43;;;;;;;;;;6124988;23;20498;-78
2023/10/30 14:16:00;;;;;;;14.68;10.85;;;;;;;;;;6123025;23;20013;-78
2023/10/30 14:18:26;;;;;;;8.82;7.03;;;;;;;;;;6122286;23;20371;-78
2023/10/30 14:20:52;;;;;;;12.65;11.10;;;;;;;;;;6121870;23;20010;-78
2023/10/30 14:23:19;;;;;;;10.00;6.13;;;;;;;;;;6123560;23;20021;-76
2023/10/30 14:25:45;;;;;;;17.50;12.00;;;;;;;;;;6124527;23;20375;-81
2023/10/30 14:28:11;;;;;;;15.82;10.75;;;;;;;;;;6124953;23;20017;-78
2023/10/30 14:30:40;;;;;;;15.27;11.77;;;;;;;;;;6124097;23;20021;-78
2023/10/30 14:33:06;;;;;;;16.40;11.80;;;;;;;;;;6123042;23;20024;-74
2023/10/30 14:35:32;;;;;;;16.80;11.82;;;;;;;;;;6122352;23;20030;-74
2023/10/30 14:38:04;;;;;;;10.32;8.10;;;;;;;;;;6123065;23;20497;-75
2023/10/30 14:40:29;;;;;;;13.80;10.77;;;;;;;;;;6123961;23;20013;-75
2023/10/30 14:42:56;;;;;;;14.13;8.50;;;;;;;;;;6124517;23;20029;-76
2023/10/30 14:45:23;;;;;;;17.00;12.00;;;;;;;;;;6127672;23;20020;-77
2023/10/30 14:47:48;;;;;;;19.63;13.45;;;;;;;;;;6129991;23;20089;-76
2023/10/30 14:50:18;;;;;;;20.52;11.90;;;;;;;;;;6122736;23;20025;-77
2023/10/30 14:52:44;;;;;;;21.20;12.93;;;;;;;;;;6098989;23;20022;-76
2023/10/30 14:55:11;;;;;;;17.73;12.30;;;;;;;;;;6125638;23;20104;-78
2023/10/30 14:57:40;;;;;;;13.00;9.65;;;;;;;;;;6126551;23;20021;-74
2023/10/30 15:00:14;;;;;;;14.00;11.93;;;;;;;;;;6107008;23;20018;-75
2023/10/30 15:02:41;;;;;;;17.13;12.18;;;;;;;;;;6129156;23;20010;-74
2023/10/30 15:05:07;;;;;;;14.68;11.63;;;;;;;;;;6126911;23;20041;-75
2023/10/30 15:07:36;;;;;;;16.55;11.38;;;;;;;;;;6122828;23;20013;-76
2023/10/30 15:10:03;;;;;;;10.95;9.00;;;;;;;;;;6122791;23;20052;-76
2023/10/30 15:12:30;;;;;;;17.00;12.45;;;;;;;;;;6122850;23;20014;-75
2023/10/30 15:14:56;;;;;;;15.90;11.20;;;;;;;;;;6122581;23;20017;-76
2023/10/30 15:17:22;;;;;;;14.07;12.23;;;;;;;;;;6121670;23;20038;-76
2023/10/30 15:19:51;;;;;;;12.45;11.15;;;;;;;;;;6123515;23;20014;-74
2023/10/30 15:22:23;;;;;;;13.98;10.63;;;;;;;;;;6123753;23;20013;-74
2023/10/30 15:24:49;;;;;;;14.63;10.50;;;;;;;;;;6098685;23;20478;-78
2023/10/30 15:27:17;;;;;;;17.23;12.93;;;;;;;;;;6121053;23;20037;-75
2023/10/30 15:29:43;;;;;;;12.05;9.50;;;;;;;;;;6122552;23;20454;-75
2023/10/30 15:32:10;;;;;;;9.80;7.90;;;;;;;;;;6120236;23;20402;-74
2023/10/30 15:34:39;;;;;;;15.50;10.38;;;;;;;;;;6120787;23;20010;-74
2023/10/30 15:37:05;;;;;;;13.00;11.00;;;;;;;;;;6121706;23;20014;-74
2023/10/30 15:39:34;;;;;;;11.52;8.45;;;;;;;;;;6120913;23;20017;-75
2023/10/30 15:42:00;;;;;;;8.32;7.45;;;;;;;;;;6122002;23;20033;-77
2023/10/30 15:44:26;;;;;;;11.65;10.35;;;;;;;;;;6120751;23;20026;-76
2023/10/30 15:46:52;;;;;;;7.60;6.70;;;;;;;;;;6122311;23;20037;-77
2023/10/30 15:49:19;;;;;;;13.70;10.93;;;;;;;;;;6120401;23;20106;-77
2023/10/30 15:51:46;;;;;;;12.07;10.07;;;;;;;;;;6134993;23;20017;-76
2023/10/30 15:54:12;;;;;;;20.08;14.07;;;;;;;;;;6124788;23;20354;-76
2023/10/30 15:56:38;;;;;;;15.48;10.55;;;;;;;;;;6124904;23;20020;-76
2023/10/30 15:59:05;;;;;;;20.15;14.13;;;;;;;;;;6151275;23;20013;-76
2023/10/30 16:01:31;;;;;;;17.10;13.55;;;;;;;;;;6125192;23;20014;-76
2023/10/30 16:03:57;;;;;;;18.30;13.10;;;;;;;;;;6150996;23;20053;-77
2023/10/30 16:06:28;;;;;;;16.38;12.75;;;;;;;;;;6152032;23;20044;-76
2023/10/30 16:08:55;;;;;;;20.50;12.40;;;;;;;;;;6151620;23;20013;-76
2023/10/30 16:11:23;;;;;;;16.55;10.82;;;;;;;;;;6102448;23;20547;-76
2023/10/30 16:13:49;;;;;;;14.50;10.20;;;;;;;;;;6150313;23;20116;-77
2023/10/30 16:16:16;;;;;;;17.52;12.60;;;;;;;;;;6125249;23;20153;-77
2023/10/30 16:18:42;;;;;;;18.27;13.32;;;;;;;;;;6099968;23;20014;-78
2023/10/30 16:21:09;;;;;;;18.83;13.50;;;;;;;;;;6124511;23;20045;-76
2023/10/30 16:23:35;;;;;;;15.32;10.50;;;;;;;;;;6151019;23;20561;-76
2023/10/30 16:26:01;;;;;;;18.55;13.55;;;;;;;;;;6125186;23;20041;-77
2023/10/30 16:28:26;;;;;;;18.48;14.13;;;;;;;;;;6151380;23;20044;-78
2023/10/30 16:30:53;;;;;;;19.65;14.05;;;;;;;;;;6125693;23;20009;-76
2023/10/30 16:33:19;;;;;;;17.38;13.13;;;;;;;;;;6125749;23;20017;-77
2023/10/30 16:35:46;;;;;;;18.70;12.68;;;;;;;;;;6151340;23;20014;-77
2023/10/30 16:38:12;;;;;;;22.67;14.70;;;;;;;;;;6151196;23;20458;-75
2023/10/30 16:40:38;;;;;;;15.30;11.52;;;;;;;;;;6101304;23;20009;-77
2023/10/30 16:43:05;;;;;;;19.77;13.68;;;;;;;;;;6151844;23;20033;-76
2023/10/30 16:45:32;;;;;;;17.67;13.25;;;;;;;;;;6151724;23;20040;-76
2023/10/30 16:47:58;;;;;;;14.25;12.43;;;;;;;;;;6151496;23;20458;-79
2023/10/30 16:50:24;;;;;;;19.38;13.38;;;;;;;;;;6122550;23;20833;-76
2023/10/30 16:52:50;;;;;;;20.25;12.65;;;;;;;;;;6124310;23;20071;-78
2023/10/30 16:55:16;;;;;;;19.50;13.45;;;;;;;;;;6150221;23;20222;-78
2023/10/30 16:57:42;;;;;;;20.15;13.80;;;;;;;;;;6125331;23;20016;-78
2023/10/30 17:00:09;;;;;;;19.85;13.20;;;;;;;;;;6150912;23;20411;-77
2023/10/30 17:02:34;;;;;;;19.25;13.45;;;;;;;;;;6151297;23;20130;-77
2023/10/30 17:05:01;;;;;;;8.73;7.95;;;;;;;;;;6150048;23;20035;-79
2023/10/30 17:07:27;;;;;;;12.48;10.45;;;;;;;;;;6122854;23;20504;-78
2023/10/30 17:09:53;;;;;;;18.25;12.70;;;;;;;;;;6151302;23;20020;-76
2023/10/30 17:12:19;;;;;;;10.60;8.88;;;;;;;;;;6125369;23;20024;-77
2023/10/30 17:14:45;;;;;;;12.68;10.70;;;;;;;;;;6153036;23;20084;-76
2023/10/30 17:17:11;;;;;;;16.75;13.45;;;;;;;;;;6152361;23;20369;-77
2023/10/30 17:19:37;;;;;;;17.60;13.90;;;;;;;;;;6152392;23;20037;-77
2023/10/30 17:22:03;;;;;;;17.73;10.98;;;;;;;;;;6150575;23;20446;-77
2023/10/30 17:24:29;;;;;;;17.45;14.20;;;;;;;;;;6152555;23;20028;-77